Time;durP1;ratioP1;P1;durP2;ratioP2;P2;SDS_P1;SDS_P2;PMS_P1;PMS_P2;Temp;Humidity;BMP_temperature;BMP_pressure;BME280_temperature;BME280_humidity;BME280_pressure;Samples;Min_cycle;Max_cycle;Signal;HPM_P1;HPM_P2
2023/03/23 00:00:08;;;;;;;10.10;6.10;;;22.20;62.80;;;;;;222350;1262;25188;-49
2023/03/23 00:05:36;;;;;;;9.20;5.80;;;22.10;62.60;;;;;;221992;1253;22518;-50
2023/03/23 00:10:39;;;;;;;6.50;4.80;;;22.20;62.40;;;;;;230212;1266;22356;-50
2023/03/23 00:15:42;;;;;;;12.00;5.70;;;22.30;62.30;;;;;;230160;1269;22207;-52
2023/03/23 00:20:44;;;;;;;8.60;5.70;;;22.40;62.00;;;;;;222251;1262;22524;-52
2023/03/23 00:25:57;;;;;;;10.70;5.70;;;22.40;61.70;;;;;;221989;1262;23076;-50
2023/03/23 00:31:05;;;;;;;10.90;6.10;;;22.20;61.90;;;;;;222250;1253;22513;-53
2023/03/23 00:36:12;;;;;;;8.30;6.00;;;22.10;62.30;;;;;;222211;1269;22530;-55
2023/03/23 00:41:15;;;;;;;7.70;5.30;;;22.10;62.40;;;;;;222364;1262;25321;-47
2023/03/23 00:46:20;;;;;;;8.50;5.00;;;22.00;62.30;;;;;;222003;1262;22754;-52
2023/03/23 00:51:24;;;;;;;6.50;5.60;;;22.00;62.40;;;;;;222241;1245;22749;-49
2023/03/23 00:56:27;;;;;;;7.10;5.40;;;22.00;62.40;;;;;;222169;1262;24330;-51
2023/03/23 01:01:29;;;;;;;7.20;5.30;;;22.00;62.50;;;;;;222321;1246;23885;-54
2023/03/23 01:06:39;;;;;;;8.00;5.70;;;22.00;62.40;;;;;;222038;1256;25212;-51
2023/03/23 01:11:47;;;;;;;8.60;5.60;;;21.90;62.40;;;;;;222307;1265;22563;-48
2023/03/23 01:16:50;;;;;;;8.20;5.40;;;21.90;62.40;;;;;;222275;1262;22602;-55
2023/03/23 01:21:52;;;;;;;8.70;5.90;;;21.90;62.40;;;;;;222167;1261;24102;-51
2023/03/23 01:26:55;;;;;;;8.20;6.00;;;21.90;62.40;;;;;;222331;1255;22499;-51
2023/03/23 01:31:58;;;;;;;8.50;5.40;;;21.90;62.40;;;;;;222278;1262;22501;-52
2023/03/23 01:37:01;;;;;;;7.30;5.80;;;21.90;62.30;;;;;;222217;1264;22509;-53
2023/03/23 01:42:04;;;;;;;7.50;5.00;;;21.90;62.30;;;;;;222299;1260;22523;-54
2023/03/23 01:47:07;;;;;;;8.60;5.10;;;21.90;62.30;;;;;;222339;1265;26521;-50
2023/03/23 01:52:33;;;;;;;9.20;5.80;;;21.80;62.20;;;;;;222188;1261;22507;-51
2023/03/23 01:57:39;;;;;;;7.40;5.70;;;21.80;62.10;;;;;;222254;1261;22697;-49
2023/03/23 02:02:45;;;;;;;7.30;5.30;;;21.90;62.40;;;;;;221819;1255;22599;-53
2023/03/23 02:07:51;;;;;;;8.70;5.90;;;21.80;62.10;;;;;;222248;1255;22638;-49
2023/03/23 02:12:54;;;;;;;7.00;5.70;;;21.80;62.00;;;;;;222086;1256;24369;-51
2023/03/23 02:18:13;;;;;;;7.80;5.00;;;21.80;62.10;;;;;;221876;1262;25476;-50
2023/03/23 02:23:58;;;;;;;6.90;5.20;;;21.80;62.10;;;;;;221855;1263;24266;-50
2023/03/23 02:29:13;;;;;;;8.00;6.00;;;21.80;61.90;;;;;;221850;1265;25307;-50
2023/03/23 02:34:22;;;;;;;8.00;5.60;;;21.80;61.80;;;;;;221968;1253;22656;-52
2023/03/23 02:39:54;;;;;;;6.00;5.30;;;21.70;61.80;;;;;;222170;1265;25458;-50
2023/03/23 02:45:03;;;;;;;6.80;5.30;;;21.70;62.10;;;;;;222263;1262;23568;-52
2023/03/23 02:50:10;;;;;;;6.70;5.90;;;21.70;61.90;;;;;;222254;1261;22633;-51
2023/03/23 02:55:14;;;;;;;6.60;5.10;;;21.70;61.80;;;;;;222187;1256;22617;-51
2023/03/23 03:00:18;;;;;;;9.10;5.90;;;21.70;61.90;;;;;;222260;1256;22515;-50
2023/03/23 03:05:36;;;;;;;6.90;5.90;;;21.90;61.90;;;;;;222145;1265;24037;-54
2023/03/23 03:10:54;;;;;;;6.70;5.30;;;22.20;61.30;;;;;;222107;1265;22536;-53
2023/03/23 03:16:07;;;;;;;6.70;5.50;;;22.40;60.90;;;;;;222163;1257;24178;-51
2023/03/23 03:21:16;;;;;;;7.10;5.80;;;22.50;60.70;;;;;;222084;1262;26682;-51
2023/03/23 03:26:26;;;;;;;6.30;5.20;;;22.60;60.30;;;;;;222213;1253;22518;-47
2023/03/23 03:31:37;;;;;;;7.30;5.30;;;22.70;60.50;;;;;;222015;1246;22929;-54
2023/03/23 03:36:41;;;;;;;7.20;5.20;;;22.80;60.00;;;;;;222327;1262;22947;-52
2023/03/23 03:41:45;;;;;;;5.30;4.70;;;23.00;59.30;;;;;;222247;1265;22514;-51
2023/03/23 03:46:48;;;;;;;6.60;5.70;;;23.10;58.70;;;;;;222230;1259;24081;-53
2023/03/23 03:51:51;;;;;;;6.00;5.00;;;23.10;58.80;;;;;;222291;1256;24044;-50
2023/03/23 03:56:58;;;;;;;5.50;5.00;;;23.00;59.10;;;;;;222166;1263;22674;-50
2023/03/23 04:02:26;;;;;;;6.30;5.20;;;23.10;59.00;;;;;;221926;1259;23906;-49
2023/03/23 04:07:29;;;;;;;4.80;4.30;;;23.20;58.80;;;;;;221939;1265;22621;-51
2023/03/23 04:12:33;;;;;;;6.90;4.80;;;23.20;58.60;;;;;;222280;1260;22766;-50
2023/03/23 04:17:56;;;;;;;6.40;4.80;;;23.30;58.50;;;;;;222338;1253;23884;-48
2023/03/23 04:23:00;;;;;;;6.50;4.70;;;23.30;58.30;;;;;;222299;1253;22795;-50
2023/03/23 04:28:03;;;;;;;5.70;4.60;;;23.30;58.40;;;;;;222246;1253;22651;-52
2023/03/23 04:33:14;;;;;;;5.40;4.80;;;23.30;58.30;;;;;;222212;1265;22538;-52
2023/03/23 04:38:23;;;;;;;5.10;4.50;;;23.30;58.30;;;;;;222126;1268;22633;-52
2023/03/23 04:43:29;;;;;;;4.70;4.30;;;23.40;58.00;;;;;;222057;1260;22534;-54
2023/03/23 04:48:41;;;;;;;6.20;4.40;;;23.30;58.00;;;;;;222423;1262;24210;-55
2023/03/23 04:53:53;;;;;;;;;;;23.20;58.70;;;;;;222306;1262;22521;-51
2023/03/23 04:58:56;;;;;;;4.90;4.40;;;23.10;59.10;;;;;;222587;1262;25206;-53
2023/03/23 05:04:00;;;;;;;4.90;4.40;;;23.10;59.50;;;;;;222293;1269;22503;-56
2023/03/23 05:09:03;;;;;;;5.10;4.60;;;23.00;59.80;;;;;;222467;1259;22519;-52
2023/03/23 05:14:06;;;;;;;5.50;4.70;;;23.00;60.30;;;;;;222508;1264;22653;-50
2023/03/23 05:19:09;;;;;;;6.70;4.70;;;22.90;59.80;;;;;;222444;1265;22609;-56
2023/03/23 05:24:13;;;;;;;5.60;5.00;;;22.90;59.70;;;;;;222315;1248;24212;-45
2023/03/23 05:29:18;;;;;;;6.20;5.50;;;22.80;60.10;;;;;;222052;1261;22521;-46
2023/03/23 05:34:35;;;;;;;9.60;4.40;;;22.80;60.30;;;;;;221665;1255;22518;-45
2023/03/23 05:39:39;;;;;;;8.10;4.80;;;22.80;59.70;;;;;;222778;1262;22514;-47
2023/03/23 05:45:01;;;;;;;;;;;22.70;60.70;;;;;;222239;1260;22958;-45
2023/03/23 05:50:06;;;;;;;7.40;5.10;;;22.60;60.40;;;;;;222320;1263;24194;-46
2023/03/23 05:55:10;;;;;;;6.00;4.40;;;22.60;60.30;;;;;;222308;1261;22514;-48
2023/03/23 06:00:19;;;;;;;5.20;4.30;;;22.50;60.30;;;;;;221836;1253;23912;-47
2023/03/23 06:05:25;;;;;;;6.40;4.20;;;22.50;60.70;;;;;;222022;1265;22525;-46
2023/03/23 06:10:30;;;;;;;4.60;4.10;;;22.50;60.90;;;;;;222077;1255;23019;-47
2023/03/23 06:15:37;;;;;;;5.70;3.80;;;22.40;60.40;;;;;;222167;1254;22528;-46
2023/03/23 06:20:46;;;;;;;5.10;3.70;;;22.40;60.30;;;;;;222185;1263;25204;-44
2023/03/23 06:26:19;;;;;;;4.70;4.20;;;22.40;60.40;;;;;;222094;1263;169955;-45
2023/03/23 06:31:27;;;;;;;10.40;4.30;;;22.40;60.20;;;;;;222135;1258;22620;-48
2023/03/23 06:36:31;;;;;;;6.70;4.10;;;22.40;61.20;;;;;;222461;1253;25278;-50
2023/03/23 06:41:59;;;;;;;4.50;4.00;;;22.40;61.30;;;;;;222323;1263;22526;-52
2023/03/23 06:47:04;;;;;;;4.10;3.80;;;22.50;61.30;;;;;;222145;1268;22501;-53
2023/03/23 06:52:11;;;;;;;6.80;4.10;;;22.50;61.40;;;;;;222567;1266;25212;-54
2023/03/23 06:57:14;;;;;;;6.40;3.50;;;22.50;61.00;;;;;;222314;1266;22511;-55
2023/03/23 07:02:19;;;;;;;4.50;3.50;;;22.60;61.00;;;;;;222482;1263;25389;-51
2023/03/23 07:07:25;;;;;;;15.80;3.90;;;22.60;61.00;;;;;;222258;1254;24229;-48
2023/03/23 07:12:38;;;;;;;6.00;3.70;;;22.50;61.10;;;;;;222120;1256;22632;-52
2023/03/23 07:17:42;;;;;;;7.00;3.50;;;22.50;61.10;;;;;;222377;1260;22937;-54
2023/03/23 07:23:08;;;;;;;10.40;3.40;;;22.50;61.00;;;;;;222196;1263;22583;-54
2023/03/23 07:28:21;;;;;;;7.50;3.50;;;22.50;61.40;;;;;;222152;1263;22513;-54
2023/03/23 07:33:24;;;;;;;4.90;3.30;;;22.60;60.60;;;;;;222311;1264;22608;-53
2023/03/23 07:38:29;;;;;;;7.30;3.60;;;22.50;60.40;;;;;;222097;1269;22512;-53
2023/03/23 07:43:33;;;;;;;3.50;3.20;;;22.50;60.40;;;;;;222161;1262;22780;-55
2023/03/23 07:48:37;;;;;;;4.80;3.50;;;22.40;60.30;;;;;;222312;1255;22507;-57
2023/03/23 07:53:40;;;;;;;5.90;3.50;;;22.50;60.40;;;;;;222281;1262;25258;-54
2023/03/23 07:59:04;;;;;;;4.50;3.80;;;22.50;60.20;;;;;;222160;1253;24109;-53
2023/03/23 08:04:08;;;;;;;6.10;3.30;;;22.40;60.20;;;;;;222467;1259;22600;-54
2023/03/23 08:09:32;;;;;;;5.60;3.80;;;22.50;60.00;;;;;;222226;1262;24713;-53
2023/03/23 08:15:14;;;;;;;4.60;3.40;;;22.50;60.00;;;;;;222010;1263;22550;-52
2023/03/23 08:20:44;;;;;;;5.00;3.20;;;22.50;60.10;;;;;;222137;1264;22645;-55
2023/03/23 08:26:03;;;;;;;3.60;3.20;;;22.50;59.90;;;;;;222133;1269;24101;-54
2023/03/23 08:31:24;;;;;;;;;;;22.40;59.90;;;;;;222361;1269;25313;-54
2023/03/23 08:36:46;;;;;;;3.40;3.10;;;22.40;59.80;;;;;;222339;1269;24247;-52
2023/03/23 08:42:23;;;;;;;4.00;3.10;;;22.40;60.00;;;;;;221576;1262;22523;-47
2023/03/23 08:47:56;;;;;;;4.10;3.00;;;22.30;60.30;;;;;;221826;1261;23925;-52
2023/03/23 08:53:20;;;;;;;4.50;3.60;;;22.40;60.20;;;;;;222048;1264;22527;-54
2023/03/23 08:58:23;;;;;;;3.50;3.20;;;22.30;60.20;;;;;;222010;1263;24069;-50
2023/03/23 09:03:55;;;;;;;;;;;22.30;60.30;;;;;;221807;1269;24043;-49
2023/03/23 09:09:34;;;;;;;3.10;2.80;;;22.30;59.90;;;;;;221475;1254;24102;-51
2023/03/23 09:14:37;;;;;;;3.40;3.00;;;22.50;59.70;;;;;;222115;1263;25270;-51
2023/03/23 09:19:41;;;;;;;4.40;2.90;;;22.50;59.60;;;;;;222283;1263;22623;-52
2023/03/23 09:24:43;;;;;;;2.70;2.50;;;22.60;59.00;;;;;;222342;1257;22511;-52
2023/03/23 09:29:48;;;;;;;4.00;2.90;;;22.60;59.40;;;;;;222203;1261;23930;-55
2023/03/23 09:34:54;;;;;;;5.90;2.30;;;22.60;59.30;;;;;;222409;1269;22514;-53
2023/03/23 09:39:57;;;;;;;3.50;3.00;;;22.60;59.40;;;;;;222242;1263;23935;-53
2023/03/23 09:45:26;;;;;;;3.00;2.70;;;22.60;59.00;;;;;;222414;1266;22507;-53
2023/03/23 09:50:32;;;;;;;3.00;2.80;;;22.50;59.20;;;;;;221984;1264;24365;-53
2023/03/23 09:55:36;;;;;;;3.10;2.90;;;22.40;60.40;;;;;;222225;1264;22568;-53
2023/03/23 10:00:47;;;;;;;4.20;2.50;;;22.40;60.60;;;;;;222291;1269;25384;-51
2023/03/23 10:05:52;;;;;;;3.70;3.20;;;22.30;60.10;;;;;;222183;1257;24674;-53
2023/03/23 10:11:04;;;;;;;4.60;2.40;;;22.40;60.00;;;;;;222065;1263;22536;-51
2023/03/23 10:16:17;;;;;;;7.30;3.00;;;22.60;59.40;;;;;;222234;1255;22554;-55
2023/03/23 10:21:23;;;;;;;8.00;2.10;;;22.70;59.00;;;;;;221989;1263;22605;-53
2023/03/23 10:26:55;;;;;;;4.40;2.80;;;22.40;59.70;;;;;;222192;1264;22528;-54
2023/03/23 10:32:04;;;;;;;2.70;2.50;;;22.50;60.80;;;;;;220764;1271;22680;-53
2023/03/23 10:37:21;;;;;;;3.60;3.00;;;22.60;60.90;;;;;;220705;1270;22556;-53
2023/03/23 10:42:28;;;;;;;2.70;2.30;;;22.50;60.30;;;;;;220647;1270;25287;-55
2023/03/23 10:47:31;;;;;;;4.50;2.30;;;22.60;60.20;;;;;;220734;1261;24393;-57
2023/03/23 10:52:41;;;;;;;5.30;2.30;;;22.60;60.00;;;;;;220649;1276;22530;-55
2023/03/23 10:57:47;;;;;;;2.50;2.30;;;22.50;60.10;;;;;;220830;1270;22523;-51
2023/03/23 11:03:13;;;;;;;2.70;2.40;;;22.60;60.10;;;;;;220813;1270;22569;-51
2023/03/23 11:08:20;;;;;;;3.20;2.70;;;22.60;60.10;;;;;;221863;1263;22589;-57
2023/03/23 11:13:30;;;;;;;6.60;2.30;;;22.60;59.70;;;;;;222168;1260;22519;-59
2023/03/23 11:18:39;;;;;;;2.80;2.50;;;22.60;59.60;;;;;;222247;1254;25329;-53
2023/03/23 11:23:47;;;;;;;3.50;2.30;;;22.70;59.30;;;;;;222144;1262;25249;-54
2023/03/23 11:29:03;;;;;;;3.30;2.60;;;22.70;59.40;;;;;;222191;1254;25217;-57
2023/03/23 11:34:18;;;;;;;2.40;2.20;;;22.70;59.30;;;;;;221874;1257;22654;-55
2023/03/23 11:39:28;;;;;;;2.60;2.10;;;22.70;59.20;;;;;;222671;1248;24132;-58
2023/03/23 11:44:41;;;;;;;2.50;2.10;;;22.70;59.20;;;;;;222063;1264;22531;-56
2023/03/23 11:49:47;;;;;;;2.40;2.20;;;22.70;59.10;;;;;;222419;1262;23931;-52
2023/03/23 11:55:02;;;;;;;4.70;2.20;;;22.70;59.20;;;;;;222313;1264;22516;-56
2023/03/23 12:00:25;;;;;;;2.50;2.30;;;22.60;59.20;;;;;;222130;1254;22526;-57
2023/03/23 12:05:36;;;;;;;3.70;2.20;;;22.60;59.50;;;;;;222491;1269;24189;-54
2023/03/23 12:10:50;;;;;;;2.10;1.90;;;22.60;59.20;;;;;;221944;1261;22470;-55
2023/03/23 12:16:10;;;;;;;2.50;2.30;;;22.60;58.90;;;;;;221951;1264;22522;-55
2023/03/23 12:21:31;;;;;;;2.10;1.90;;;22.50;59.30;;;;;;222166;1263;25272;-54
2023/03/23 12:27:06;;;;;;;2.40;2.20;;;22.50;59.40;;;;;;222394;1247;22522;-56
2023/03/23 12:32:33;;;;;;;2.10;1.80;;;22.60;59.20;;;;;;221979;1248;25271;-52
2023/03/23 12:37:51;;;;;;;3.00;2.00;;;22.70;59.30;;;;;;222396;1254;22542;-56
2023/03/23 12:43:05;;;;;;;2.00;1.90;;;22.70;59.00;;;;;;222189;1260;25340;-52
2023/03/23 12:48:27;;;;;;;2.40;2.00;;;22.70;59.50;;;;;;222413;1254;22515;-51
2023/03/23 12:54:05;;;;;;;2.20;1.90;;;22.70;60.20;;;;;;222528;1254;24053;-50
2023/03/23 12:59:29;;;;;;;2.40;2.10;;;22.50;60.70;;;;;;222375;1253;22512;-52
2023/03/23 13:04:46;;;;;;;3.70;2.30;;;22.40;61.10;;;;;;222356;1263;22662;-52
2023/03/23 13:10:00;;;;;;;3.20;1.70;;;22.30;61.40;;;;;;222104;1252;23883;-53
2023/03/23 13:15:19;;;;;;;2.60;2.10;;;22.40;61.70;;;;;;222166;1262;24391;-53
2023/03/23 13:20:37;;;;;;;2.00;1.90;;;22.40;61.60;;;;;;222179;1261;22988;-51
2023/03/23 13:25:51;;;;;;;2.50;2.20;;;22.40;62.50;;;;;;222149;1266;22630;-54
2023/03/23 13:31:15;;;;;;;1.90;1.60;;;22.40;62.30;;;;;;222416;1261;25357;-54
2023/03/23 13:36:46;;;;;;;3.70;1.70;;;22.30;62.70;;;;;;222456;1261;22515;-52
2023/03/23 13:42:01;;;;;;;1.40;1.30;;;22.40;62.50;;;;;;222297;1254;22527;-51
2023/03/23 13:47:22;;;;;;;1.90;1.70;;;22.40;63.00;;;;;;222665;1262;24087;-50
2023/03/23 13:52:43;;;;;;;2.00;1.80;;;22.40;62.90;;;;;;222380;1247;22863;-51
2023/03/23 13:57:57;;;;;;;2.00;1.80;;;22.40;62.60;;;;;;222097;1263;24257;-51
2023/03/23 14:03:10;;;;;;;3.20;2.00;;;22.50;62.90;;;;;;222304;1262;22517;-52
2023/03/23 14:08:22;;;;;;;1.60;1.50;;;22.60;62.90;;;;;;222311;1256;23114;-52
2023/03/23 14:13:31;;;;;;;3.90;1.90;;;22.50;63.20;;;;;;222374;1263;25361;-52
2023/03/23 14:18:39;;;;;;;2.80;1.90;;;22.50;63.20;;;;;;222410;1261;24404;-55
2023/03/23 14:23:42;;;;;;;2.00;1.90;;;22.50;63.20;;;;;;222414;1260;24110;-50
2023/03/23 14:28:50;;;;;;;1.70;1.60;;;22.50;63.40;;;;;;222376;1254;22533;-52
2023/03/23 14:33:55;;;;;;;2.00;1.90;;;22.50;63.40;;;;;;222454;1254;23915;-53
2023/03/23 14:39:19;;;;;;;2.10;1.90;;;22.40;63.50;;;;;;222261;1254;25390;-52
2023/03/23 14:44:30;;;;;;;2.10;1.70;;;22.50;63.50;;;;;;222276;1254;23905;-51
2023/03/23 14:49:40;;;;;;;1.60;1.50;;;22.50;63.80;;;;;;222128;1262;24345;-51
2023/03/23 14:54:45;;;;;;;2.40;1.50;;;22.40;63.70;;;;;;222062;1264;22537;-49
2023/03/23 14:59:48;;;;;;;3.70;1.90;;;22.40;64.00;;;;;;222381;1255;22536;-52
2023/03/23 15:04:57;;;;;;;3.70;1.90;;;22.30;64.50;;;;;;222038;1254;24186;-53
2023/03/23 15:10:01;;;;;;;1.80;1.60;;;22.30;64.60;;;;;;222395;1254;22637;-52
2023/03/23 15:15:07;;;;;;;2.00;1.80;;;22.30;65.10;;;;;;222402;1265;25940;-51
2023/03/23 15:20:19;;;;;;;1.40;1.30;;;22.30;64.60;;;;;;222586;1255;22605;-52
2023/03/23 15:25:23;;;;;;;;;;;22.30;64.60;;;;;;222210;1269;25433;-51
2023/03/23 15:30:26;;;;;;;1.70;1.60;;;22.30;64.80;;;;;;222255;1252;22523;-54
2023/03/23 15:35:35;;;;;;;2.50;1.60;;;22.30;64.50;;;;;;222309;1253;22566;-53
2023/03/23 15:40:38;;;;;;;1.60;1.50;;;22.30;64.60;;;;;;222362;1264;25466;-52
2023/03/23 15:45:54;;;;;;;2.30;2.10;;;22.30;64.90;;;;;;222169;1262;24191;-54
2023/03/23 15:50:57;;;;;;;1.50;1.40;;;22.20;65.00;;;;;;222243;1255;24240;-51
2023/03/23 15:56:02;;;;;;;1.50;1.40;;;22.30;64.70;;;;;;222222;1263;25326;-51
2023/03/23 16:01:13;;;;;;;2.10;1.50;;;22.30;65.10;;;;;;222424;1269;26621;-49
2023/03/23 16:06:20;;;;;;;2.10;1.60;;;22.20;65.00;;;;;;222411;1246;22626;-50
2023/03/23 16:11:30;;;;;;;2.00;1.80;;;22.20;65.00;;;;;;222064;1255;22517;-49
2023/03/23 16:16:46;;;;;;;2.40;1.50;;;22.20;65.10;;;;;;222250;1254;22518;-48
2023/03/23 16:21:53;;;;;;;4.30;2.00;;;22.20;64.60;;;;;;222385;1253;22517;-53
2023/03/23 16:26:57;;;;;;;6.10;1.80;;;22.20;65.20;;;;;;222122;1255;25435;-53
2023/03/23 16:32:02;;;;;;;2.50;1.80;;;22.30;65.00;;;;;;222239;1256;22753;-51
2023/03/23 16:37:07;;;;;;;5.00;1.70;;;22.30;64.90;;;;;;222162;1247;24186;-52
2023/03/23 16:42:12;;;;;;;3.30;2.00;;;22.30;64.80;;;;;;222340;1256;25452;-52
2023/03/23 16:47:24;;;;;;;2.20;2.00;;;22.40;64.00;;;;;;221991;1254;22776;-53
2023/03/23 16:52:28;;;;;;;3.40;1.80;;;22.30;65.00;;;;;;222017;1262;25207;-55
2023/03/23 16:57:37;;;;;;;2.40;1.80;;;22.30;63.90;;;;;;221705;1258;25259;-48
2023/03/23 17:02:43;;;;;;;3.40;1.70;;;22.20;64.20;;;;;;222085;1262;22614;-52
2023/03/23 17:07:48;;;;;;;2.10;1.60;;;22.30;63.40;;;;;;222050;1260;22511;-47
2023/03/23 17:12:54;;;;;;;4.40;2.40;;;22.20;62.60;;;;;;222309;1260;24192;-50
2023/03/23 17:17:58;;;;;;;3.30;1.70;;;22.20;65.00;;;;;;222274;1258;24455;-49
2023/03/23 17:23:04;;;;;;;3.10;1.70;;;22.30;66.60;;;;;;222290;1251;24384;-56
2023/03/23 17:28:08;;;;;;;2.10;1.90;;;22.40;67.20;;;;;;222220;1262;24245;-52
2023/03/23 17:33:14;;;;;;;3.40;1.80;;;22.50;66.90;;;;;;222048;1258;22537;-53
2023/03/23 17:38:19;;;;;;;3.20;1.70;;;22.50;67.10;;;;;;222339;1255;22587;-51
2023/03/23 17:43:23;;;;;;;2.70;2.50;;;22.50;67.60;;;;;;222266;1260;22569;-53
2023/03/23 17:48:28;;;;;;;6.30;1.60;;;22.50;67.30;;;;;;222485;1257;24020;-47
2023/03/23 17:53:35;;;;;;;3.20;1.70;;;22.40;66.70;;;;;;222170;1265;25301;-48
2023/03/23 17:58:40;;;;;;;2.70;1.80;;;22.50;66.80;;;;;;222388;1261;22514;-49
2023/03/23 18:03:47;;;;;;;6.40;2.30;;;22.50;67.20;;;;;;222228;1259;24226;-48
2023/03/23 18:08:54;;;;;;;2.70;1.80;;;22.60;68.60;;;;;;222068;1262;23141;-48
2023/03/23 18:13:59;;;;;;;4.20;2.10;;;22.70;70.60;;;;;;222465;1262;22531;-47
2023/03/23 18:19:06;;;;;;;2.30;1.70;;;22.70;71.80;;;;;;221801;1255;22666;-50
2023/03/23 18:24:12;;;;;;;4.50;2.00;;;22.70;71.00;;;;;;221660;1251;201516;-47
2023/03/23 18:29:20;;;;;;;3.30;2.50;;;22.70;71.20;;;;;;221768;1253;22536;-47
2023/03/23 18:34:26;;;;;;;10.50;1.70;;;22.70;70.60;;;;;;222260;1253;22785;-46
2023/03/23 18:39:32;;;;;;;3.90;2.20;;;22.70;69.70;;;;;;222076;1262;22529;-51
2023/03/23 18:44:41;;;;;;;7.40;1.80;;;22.80;68.70;;;;;;222166;1246;25594;-47
2023/03/23 18:49:53;;;;;;;5.20;2.00;;;22.70;68.20;;;;;;221864;1253;26072;-46
2023/03/23 18:55:01;;;;;;;3.30;2.00;;;22.70;67.60;;;;;;222072;1255;22530;-51
2023/03/23 19:00:08;;;;;;;7.30;1.90;;;22.80;67.60;;;;;;222195;1255;24457;-46
2023/03/23 19:05:15;;;;;;;5.20;1.90;;;22.70;67.70;;;;;;222332;1262;24205;-52
2023/03/23 19:10:22;;;;;;;4.70;2.10;;;22.70;67.40;;;;;;222318;1262;23895;-49
2023/03/23 19:15:29;;;;;;;6.20;1.90;;;22.70;68.00;;;;;;222294;1262;23381;-49
2023/03/23 19:20:37;;;;;;;8.90;3.30;;;22.70;67.50;;;;;;222383;1262;24376;-50
2023/03/23 19:26:06;;;;;;;4.80;2.30;;;22.70;67.90;;;;;;222350;1255;24258;-48
2023/03/23 19:31:14;;;;;;;6.20;2.50;;;22.70;67.70;;;;;;222323;1256;25335;-48
2023/03/23 19:36:22;;;;;;;8.70;2.80;;;22.70;67.10;;;;;;222304;1265;25337;-47
2023/03/23 19:41:29;;;;;;;6.90;2.50;;;22.70;66.20;;;;;;222078;1260;24239;-49
2023/03/23 19:46:35;;;;;;;6.80;2.50;;;22.80;67.20;;;;;;222839;1254;24236;-47
2023/03/23 19:51:42;;;;;;;4.50;3.10;;;22.90;66.40;;;;;;222243;1262;22526;-49
2023/03/23 19:56:52;;;;;;;12.50;3.60;;;22.80;66.30;;;;;;222266;1265;22511;-48
2023/03/23 20:02:02;;;;;;;13.40;3.20;;;22.70;66.50;;;;;;222210;1257;25047;-44
2023/03/23 20:07:08;;;;;;;12.30;3.40;;;22.60;66.50;;;;;;222182;1262;24376;-46
2023/03/23 20:12:16;;;;;;;10.40;3.30;;;22.70;66.00;;;;;;222286;1259;22651;-48
2023/03/23 20:17:22;;;;;;;12.30;3.80;;;22.60;65.30;;;;;;222355;1261;25151;-46
2023/03/23 20:22:30;;;;;;;9.90;3.40;;;22.60;65.50;;;;;;222319;1255;22522;-50
2023/03/23 20:27:37;;;;;;;15.20;3.80;;;22.60;64.90;;;;;;222254;1264;22511;-48
2023/03/23 20:32:47;;;;;;;17.90;4.30;;;22.70;65.30;;;;;;222208;1262;25320;-46
2023/03/23 20:37:52;;;;;;;12.70;3.90;;;22.60;64.70;;;;;;222389;1262;22651;-49
2023/03/23 20:43:02;;;;;;;13.00;4.50;;;22.60;64.80;;;;;;222108;1260;25273;-51
2023/03/23 20:48:08;;;;;;;8.80;3.90;;;22.60;64.60;;;;;;222238;1255;22533;-49
2023/03/23 20:53:13;;;;;;;10.40;3.50;;;22.60;64.40;;;;;;222290;1269;24264;-48
2023/03/23 20:58:19;;;;;;;11.70;3.90;;;22.60;64.00;;;;;;222335;1264;22531;-44
2023/03/23 21:03:38;;;;;;;8.30;4.10;;;22.60;64.20;;;;;;222181;1260;22632;-46
2023/03/23 21:08:45;;;;;;;12.20;4.40;;;22.60;64.40;;;;;;222220;1262;23019;-57
2023/03/23 21:13:54;;;;;;;10.10;4.20;;;22.60;67.00;;;;;;222555;1262;24362;-55
2023/03/23 21:19:06;;;;;;;12.90;4.10;;;22.50;67.80;;;;;;221099;1271;22523;-50
2023/03/23 21:24:16;;;;;;;14.10;4.80;;;22.60;68.00;;;;;;221212;1271;24213;-51
2023/03/23 21:29:22;;;;;;;7.60;4.10;;;22.60;67.00;;;;;;221417;1268;22527;-58
2023/03/23 21:34:27;;;;;;;8.10;4.00;;;22.50;67.40;;;;;;221276;1267;25311;-54
2023/03/23 21:39:33;;;;;;;7.40;4.10;;;22.50;66.90;;;;;;221290;1271;22683;-54
2023/03/23 21:44:37;;;;;;;14.50;4.00;;;22.50;66.20;;;;;;221271;1267;24177;-51
2023/03/23 21:49:44;;;;;;;10.00;4.20;;;22.40;66.50;;;;;;221209;1261;22565;-52
2023/03/23 21:54:48;;;;;;;7.50;3.70;;;22.50;66.50;;;;;;222622;1262;22680;-51
2023/03/23 21:59:53;;;;;;;6.40;3.60;;;22.50;65.90;;;;;;223082;1265;23882;-56
2023/03/23 22:04:57;;;;;;;7.60;3.80;;;22.40;65.70;;;;;;220909;1271;24254;-56
2023/03/23 22:10:01;;;;;;;12.50;4.40;;;22.30;65.90;;;;;;221151;1261;23920;-53
2023/03/23 22:15:08;;;;;;;18.30;4.20;;;22.30;66.60;;;;;;221386;1271;22527;-53
2023/03/23 22:20:12;;;;;;;10.60;3.40;;;22.40;69.00;;;;;;221351;1261;23792;-51
2023/03/23 22:25:17;;;;;;;11.30;4.00;;;22.60;68.80;;;;;;222591;1265;25494;-47
2023/03/23 22:30:21;;;;;;;8.30;4.10;;;22.60;68.50;;;;;;222613;1263;22659;-47
2023/03/23 22:35:27;;;;;;;6.70;3.40;;;22.60;68.20;;;;;;222725;1256;22517;-50
2023/03/23 22:40:31;;;;;;;7.00;4.10;;;22.60;68.70;;;;;;222773;1263;22626;-57
2023/03/23 22:45:36;;;;;;;10.90;3.80;;;22.60;68.10;;;;;;222516;1269;22532;-53
2023/03/23 22:50:40;;;;;;;9.80;3.70;;;22.60;68.10;;;;;;222830;1262;22567;-51
2023/03/23 22:55:46;;;;;;;6.80;3.70;;;22.70;67.70;;;;;;222777;1254;23888;-51
2023/03/23 23:00:57;;;;;;;9.30;3.90;;;22.60;67.40;;;;;;222958;1263;25385;-52
2023/03/23 23:06:01;;;;;;;7.40;3.60;;;22.70;67.20;;;;;;222722;1265;25447;-51
2023/03/23 23:11:09;;;;;;;7.90;3.60;;;22.70;66.80;;;;;;222959;1253;22500;-53
2023/03/23 23:16:17;;;;;;;8.30;3.30;;;22.60;66.70;;;;;;222890;1260;24523;-50
2023/03/23 23:21:27;;;;;;;7.50;4.60;;;22.60;67.30;;;;;;222728;1256;24232;-45
2023/03/23 23:26:33;;;;;;;7.40;3.60;;;22.60;67.10;;;;;;222579;1262;24312;-57
2023/03/23 23:31:37;;;;;;;3.90;2.80;;;22.50;67.00;;;;;;222289;1265;22511;-54
2023/03/23 23:36:42;;;;;;;7.30;4.00;;;22.50;68.30;;;;;;222355;1262;22815;-53
2023/03/23 23:41:46;;;;;;;7.00;3.40;;;22.40;67.80;;;;;;222229;1262;22550;-53
2023/03/23 23:46:52;;;;;;;7.90;4.00;;;22.40;68.30;;;;;;222122;1262;24412;-54
2023/03/23 23:51:57;;;;;;;4.90;2.80;;;22.30;66.90;;;;;;222360;1258;23576;-53
2023/03/23 23:57:01;;;;;;;7.40;3.70;;;22.40;66.80;;;;;;222346;1254;22524;-56
